createdAt,value
2023-02-16T00:01:52.212Z,101613.97
2023-02-16T00:04:22.424Z,101607.63
2023-02-16T00:06:51.118Z,101608.91
2023-02-16T00:09:20.052Z,101606.09
2023-02-16T00:12:06.225Z,101608.66
2023-02-16T00:14:35.672Z,101618.19
2023-02-16T00:17:06.085Z,101615.28
2023-02-16T00:19:37.439Z,101607.56
2023-02-16T00:22:06.770Z,101619.03
2023-02-16T00:24:35.389Z,101616.34
2023-02-16T00:27:03.689Z,101610.91
2023-02-16T00:29:35.230Z,101600.06
2023-02-16T00:32:06.971Z,101601.75
2023-02-16T00:34:36.434Z,101598.09
2023-02-16T00:37:06.133Z,101596.38
2023-02-16T00:39:35.087Z,101601.53
2023-02-16T00:42:05.649Z,101592.72
2023-02-16T00:44:37.559Z,101600.91
2023-02-16T00:47:18.967Z,101590.94
2023-02-16T00:49:47.323Z,101591.78
2023-02-16T00:52:34.737Z,101576.66
2023-02-16T00:55:04.842Z,101584.94
2023-02-16T00:57:36.118Z,101574.34
2023-02-16T01:00:09.520Z,101571.66
2023-02-16T01:02:39.076Z,101567.16
2023-02-16T01:05:07.796Z,101558.13
2023-02-16T01:07:53.425Z,101559.13
2023-02-16T01:10:39.717Z,101551.16
2023-02-16T01:13:07.792Z,101544.44
2023-02-16T01:15:36.078Z,101549.69
2023-02-16T01:18:06.186Z,101549.81
2023-02-16T01:20:36.596Z,101543.09
2023-02-16T01:23:05.239Z,101529.19
2023-02-16T01:25:33.528Z,101535.19
2023-02-16T01:28:03.058Z,101519.31
2023-02-16T01:30:31.275Z,101511.28
2023-02-16T01:32:59.228Z,101509.69
2023-02-16T01:35:34.579Z,101502.72
2023-02-16T01:38:02.722Z,101505.19
2023-02-16T01:40:39.789Z,101498.97
2023-02-16T01:43:18.589Z,101501.03
2023-02-16T01:45:49.614Z,101493.63
2023-02-16T01:48:25.999Z,101496.19
2023-02-16T01:51:01.439Z,101487.88
2023-02-16T01:53:34.659Z,101491.66
2023-02-16T01:56:05.886Z,101482.78
2023-02-16T01:58:41.300Z,101474.75
2023-02-16T02:01:39.137Z,101480.94
2023-02-16T02:04:41.124Z,101487.28
2023-02-16T02:07:15.336Z,101467.06
2023-02-16T02:09:51.401Z,101456.97
2023-02-16T02:12:29.964Z,101459.63
2023-02-16T02:14:57.970Z,101460.59
2023-02-16T02:17:26.983Z,101456.09
2023-02-16T02:20:07.740Z,101437.56
2023-02-16T02:23:32.500Z,101441.69
2023-02-16T02:26:48.455Z,101442.78
2023-02-16T02:29:45.389Z,101445.59
2023-02-16T02:32:21.940Z,101433.75
2023-02-16T02:35:01.714Z,101425.00
2023-02-16T02:37:40.875Z,101421.72
2023-02-16T02:40:18.191Z,101413.69
2023-02-16T02:42:52.865Z,101413.59
2023-02-16T02:45:26.345Z,101413.47
2023-02-16T02:47:54.329Z,101409.69
2023-02-16T02:51:06.099Z,101407.00
2023-02-16T02:53:37.309Z,101396.69
2023-02-16T02:56:25.858Z,101389.25
2023-02-16T02:59:16.699Z,101379.63
2023-02-16T03:01:51.329Z,101375.25
2023-02-16T03:04:23.744Z,101374.03
2023-02-16T03:06:54.300Z,101373.69
2023-02-16T03:09:22.672Z,101373.41
2023-02-16T03:12:09.220Z,101380.47
2023-02-16T03:14:41.186Z,101372.56
2023-02-16T03:17:30.201Z,101363.44
2023-02-16T03:20:17.575Z,101366.13
2023-02-16T03:23:03.734Z,101365.28
2023-02-16T03:25:52.406Z,101361.50
2023-02-16T03:28:41.083Z,101367.34
2023-02-16T03:31:13.028Z,101354.91
2023-02-16T03:33:42.946Z,101354.78
2023-02-16T03:36:12.044Z,101344.81
2023-02-16T03:38:40.070Z,101345.41
2023-02-16T03:41:08.225Z,101325.41
2023-02-16T03:43:36.138Z,101336.53
2023-02-16T03:46:04.186Z,101317.13
2023-02-16T03:48:32.155Z,101323.13
2023-02-16T03:51:01.701Z,101315.69
2023-02-16T03:53:30.037Z,101327.03
2023-02-16T03:55:58.063Z,101314.25
2023-02-16T03:58:26.391Z,101321.31
2023-02-16T04:00:54.738Z,101306.66
2023-02-16T04:03:22.718Z,101307.16
2023-02-16T04:05:50.645Z,101309.09
2023-02-16T04:08:20.332Z,101294.59
2023-02-16T04:10:48.559Z,101294.59
2023-02-16T04:13:15.468Z,101294.44
2023-02-16T04:15:45.540Z,101298.84
2023-02-16T04:18:13.657Z,101301.41
2023-02-16T04:20:41.774Z,101298.59
2023-02-16T04:23:09.928Z,101293.09
2023-02-16T04:25:39.531Z,101299.59
2023-02-16T04:28:07.462Z,101303.72
2023-02-16T04:30:35.490Z,101306.13
2023-02-16T04:33:03.547Z,101312.25
2023-02-16T04:35:31.458Z,101313.94
2023-02-16T04:37:59.469Z,101312.25
2023-02-16T04:40:27.429Z,101310.53
2023-02-16T04:42:56.872Z,101312.47
2023-02-16T04:45:24.812Z,101313.94
2023-02-16T04:47:53.046Z,101330.88
2023-02-16T04:50:21.054Z,101332.47
2023-02-16T04:52:49.085Z,101345.63
2023-02-16T04:55:17.082Z,101336.88
2023-02-16T04:57:45.029Z,101324.91
2023-02-16T05:00:15.445Z,101328.53
2023-02-16T05:02:43.402Z,101322.22
2023-02-16T05:05:11.355Z,101316.97
2023-02-16T05:07:39.807Z,101320.38
2023-02-16T05:10:08.679Z,101315.03
2023-02-16T05:12:52.975Z,101317.56
2023-02-16T05:15:22.452Z,101317.34
2023-02-16T05:17:50.506Z,101310.13
2023-02-16T05:20:18.651Z,101310.00
2023-02-16T05:22:46.725Z,101317.06
2023-02-16T05:25:14.724Z,101313.66
2023-02-16T05:27:42.720Z,101315.34
2023-02-16T05:30:12.055Z,101313.53
2023-02-16T05:32:41.454Z,101307.44
2023-02-16T05:35:09.497Z,101306.47
2023-02-16T05:37:37.832Z,101296.44
2023-02-16T05:40:06.998Z,101294.75
2023-02-16T05:42:34.920Z,101294.59
2023-02-16T05:45:03.688Z,101300.84
2023-02-16T05:47:31.700Z,101298.28
2023-02-16T05:50:01.122Z,101297.03
2023-02-16T05:52:29.101Z,101290.13
2023-02-16T05:54:56.999Z,101287.16
2023-02-16T05:57:24.853Z,101291.44
2023-02-16T05:59:52.747Z,101288.63
2023-02-16T06:02:21.093Z,101297.50
2023-02-16T06:04:49.073Z,101295.81
2023-02-16T06:07:18.753Z,101293.59
2023-02-16T06:09:46.644Z,101297.75
2023-02-16T06:12:14.483Z,101292.22
2023-02-16T06:14:42.385Z,101291.38
2023-02-16T06:17:10.276Z,101301.13
2023-02-16T06:19:38.196Z,101298.13
2023-02-16T06:22:06.280Z,101313.97
2023-02-16T06:24:37.231Z,101310.88
2023-02-16T06:27:05.364Z,101309.78
2023-02-16T06:29:33.365Z,101315.25
2023-02-16T06:32:01.527Z,101314.25
2023-02-16T06:34:29.571Z,101323.06
2023-02-16T06:36:57.587Z,101332.53
2023-02-16T06:39:25.611Z,101326.19
2023-02-16T06:41:55.009Z,101340.00
2023-02-16T06:44:22.983Z,101337.78
2023-02-16T06:46:50.956Z,101332.06
2023-02-16T06:49:21.193Z,101340.84
2023-02-16T06:51:50.179Z,101341.72
2023-02-16T06:54:18.743Z,101346.09
2023-02-16T06:56:46.887Z,101351.47
2023-02-16T06:59:16.530Z,101365.50
2023-02-16T07:01:45.493Z,101361.50
2023-02-16T07:04:14.043Z,101359.28
2023-02-16T07:06:42.813Z,101379.78
2023-02-16T07:09:12.754Z,101365.22
2023-02-16T07:11:41.098Z,101390.13
2023-02-16T07:14:09.242Z,101391.34
2023-02-16T07:16:39.129Z,101382.31
2023-02-16T07:19:07.280Z,101381.31
2023-02-16T07:21:35.718Z,101392.69
2023-02-16T07:24:03.809Z,101387.59
2023-02-16T07:26:31.880Z,101389.38
2023-02-16T07:29:00.058Z,101406.25
2023-02-16T07:31:28.129Z,101396.59
2023-02-16T07:33:57.657Z,101394.03
2023-02-16T07:36:25.916Z,101393.06
2023-02-16T07:38:55.159Z,101400.03
2023-02-16T07:41:23.622Z,101406.25
2023-02-16T07:43:51.638Z,101398.91
2023-02-16T07:46:19.598Z,101394.50
2023-02-16T07:48:48.814Z,101391.13
2023-02-16T07:51:23.982Z,101399.75
2023-02-16T07:53:52.224Z,101395.59
2023-02-16T07:56:26.979Z,101403.03
2023-02-16T07:58:55.846Z,101398.50
2023-02-16T08:01:23.962Z,101397.66
2023-02-16T08:03:52.534Z,101398.97
2023-02-16T08:06:23.062Z,101411.69
2023-02-16T08:08:51.246Z,101408.16
2023-02-16T08:11:21.408Z,101398.13
2023-02-16T08:13:49.784Z,101414.63
2023-02-16T08:16:20.426Z,101424.59
2023-02-16T08:18:48.947Z,101420.22
2023-02-16T08:21:19.112Z,101436.59
2023-02-16T08:23:54.711Z,101425.84
2023-02-16T08:26:27.000Z,101443.28
2023-02-16T08:28:56.573Z,101450.28
2023-02-16T08:31:28.549Z,101452.81
2023-02-16T08:33:57.395Z,101460.88
2023-02-16T08:36:29.580Z,101464.56
2023-02-16T08:38:59.617Z,101467.09
2023-02-16T08:41:31.236Z,101466.72
2023-02-16T08:44:00.925Z,101464.31
2023-02-16T08:46:30.181Z,101469.94
2023-02-16T08:49:00.206Z,101467.00
2023-02-16T08:51:38.578Z,101461.63
2023-02-16T08:54:09.376Z,101476.75
2023-02-16T08:56:38.044Z,101474.94
2023-02-16T08:59:06.134Z,101460.88
2023-02-16T09:01:34.153Z,101468.44
2023-02-16T09:04:02.372Z,101479.69
2023-02-16T09:06:30.467Z,101478.00
2023-02-16T09:08:58.749Z,101471.16
2023-02-16T09:11:28.325Z,101483.84
2023-02-16T09:13:56.503Z,101479.06
2023-02-16T09:16:25.356Z,101479.69
2023-02-16T09:18:53.844Z,101483.94
2023-02-16T09:21:23.388Z,101481.22
2023-02-16T09:23:52.323Z,101488.31
2023-02-16T09:26:22.554Z,101497.38
2023-02-16T09:28:53.459Z,101492.22
2023-02-16T09:31:26.417Z,101487.34
2023-02-16T09:33:57.606Z,101500.91
2023-02-16T09:36:25.817Z,101492.84
2023-02-16T09:38:54.591Z,101496.28
2023-02-16T09:41:32.048Z,101508.97
2023-02-16T09:44:10.564Z,101522.41
2023-02-16T09:46:39.384Z,101514.00
2023-02-16T09:49:10.678Z,101518.91
2023-02-16T09:51:42.299Z,101525.25
2023-02-16T09:54:24.809Z,101533.19
2023-02-16T09:56:58.088Z,101554.44
2023-02-16T09:59:45.193Z,101557.13
2023-02-16T10:02:31.423Z,101549.16
2023-02-16T10:05:17.439Z,101572.75
2023-02-16T10:07:56.352Z,101566.38
2023-02-16T10:10:27.542Z,101570.16
2023-02-16T10:13:03.537Z,101557.09
2023-02-16T10:15:34.977Z,101566.38
2023-02-16T10:18:10.199Z,101569.31
2023-02-16T10:20:41.853Z,101562.69
2023-02-16T10:23:23.878Z,101580.81
2023-02-16T10:25:56.688Z,101566.00
2023-02-16T10:28:34.086Z,101584.19
2023-02-16T10:31:06.307Z,101571.75
2023-02-16T10:33:42.597Z,101585.44
2023-02-16T10:36:18.188Z,101581.03
2023-02-16T10:38:54.119Z,101583.72
2023-02-16T10:41:33.057Z,101584.72
2023-02-16T10:44:09.676Z,101596.91
2023-02-16T10:46:43.579Z,101594.84
2023-02-16T10:49:14.315Z,101593.47
2023-02-16T10:51:46.714Z,101593.47
2023-02-16T10:54:19.628Z,101596.06
2023-02-16T10:56:52.666Z,101595.22
2023-02-16T10:59:22.655Z,101587.03
2023-02-16T11:01:54.638Z,101601.78
2023-02-16T11:04:39.588Z,101605.19
2023-02-16T11:07:10.974Z,101591.88
2023-02-16T11:09:40.278Z,101612.78
2023-02-16T11:12:29.351Z,101604.72
2023-02-16T11:15:02.779Z,101607.41
2023-02-16T11:17:34.320Z,101603.75
2023-02-16T11:20:05.992Z,101606.31
2023-02-16T11:22:37.992Z,101615.47
2023-02-16T11:25:28.184Z,101602.53
2023-02-16T11:28:05.524Z,101606.91
2023-02-16T11:30:38.981Z,101607.56
2023-02-16T11:33:23.988Z,101612.53
2023-02-16T11:35:52.293Z,101609.97
2023-02-16T11:38:29.103Z,101617.78
2023-02-16T11:40:58.746Z,101618.78
2023-02-16T11:43:30.256Z,101616.00
2023-02-16T11:46:04.027Z,101632.31
2023-02-16T11:48:35.374Z,101622.69
2023-02-16T11:51:05.321Z,101626.44
2023-02-16T11:53:35.778Z,101630.84
2023-02-16T11:56:22.320Z,101619.16
2023-02-16T11:59:08.799Z,101626.72
2023-02-16T12:01:59.282Z,101617.91
2023-02-16T12:04:46.464Z,101621.72
2023-02-16T12:07:24.525Z,101612.53
2023-02-16T12:10:02.746Z,101619.88
2023-02-16T12:12:38.588Z,101620.47
2023-02-16T12:15:22.158Z,101617.53
2023-02-16T12:18:08.717Z,101620.22
2023-02-16T12:20:48.968Z,101620.38
2023-02-16T12:23:38.732Z,101632.09
2023-02-16T12:26:24.847Z,101636.34
2023-02-16T12:29:03.864Z,101640.16
2023-02-16T12:31:41.734Z,101650.63
2023-02-16T12:34:20.829Z,101650.91
2023-02-16T12:36:59.322Z,101646.84
2023-02-16T12:39:32.310Z,101657.00
2023-02-16T12:45:57.252Z,101662.09
2023-02-16T12:48:49.622Z,101662.09
2023-02-16T12:51:22.041Z,101662.09
2023-02-16T12:53:58.404Z,101666.75
2023-02-16T12:56:32.418Z,101661.00
2023-02-16T12:59:11.265Z,101668.47
2023-02-16T13:01:39.587Z,101671.63
2023-02-16T13:04:19.451Z,101676.03
2023-02-16T13:06:58.240Z,101670.19
2023-02-16T13:09:48.184Z,101688.72
2023-02-16T13:12:27.300Z,101702.16
2023-02-16T13:15:03.846Z,101695.22
2023-02-16T13:17:36.576Z,101710.09
2023-02-16T13:20:05.565Z,101700.19
2023-02-16T13:22:53.240Z,101694.34
2023-02-16T13:25:48.267Z,101691.66
2023-02-16T13:28:38.161Z,101685.31
2023-02-16T13:31:19.283Z,101679.97
2023-02-16T13:34:04.235Z,101690.06
2023-02-16T13:37:04.196Z,101699.56
2023-02-16T13:39:55.309Z,101685.41
2023-02-16T13:42:55.079Z,101690.78
2023-02-16T13:45:26.975Z,101678.44
2023-02-16T13:47:57.622Z,101679.78
2023-02-16T13:50:30.440Z,101677.00
2023-02-16T13:53:09.874Z,101677.59
2023-02-16T13:55:40.365Z,101673.34
2023-02-16T13:58:28.907Z,101668.47
2023-02-16T14:00:57.280Z,101664.56
2023-02-16T14:03:43.192Z,101650.63
2023-02-16T14:06:40.004Z,101664.13
2023-02-16T14:09:46.893Z,101654.56
2023-02-16T14:12:20.114Z,101665.41
2023-02-16T14:15:00.329Z,101658.41
2023-02-16T14:17:31.841Z,101670.38
2023-02-16T14:20:02.392Z,101674.09
2023-02-16T14:22:42.164Z,101670.56
2023-02-16T14:25:38.945Z,101689.00
2023-02-16T14:28:35.413Z,101683.88
2023-02-16T14:31:15.576Z,101681.31
2023-02-16T14:33:48.662Z,101677.16
2023-02-16T14:36:19.740Z,101682.66
2023-02-16T14:38:49.604Z,101683.75
2023-02-16T14:41:32.384Z,101677.66
2023-02-16T14:44:32.622Z,101673.59
2023-02-16T14:47:19.175Z,101696.47
2023-02-16T14:50:04.286Z,101682.94
2023-02-16T14:52:54.619Z,101683.88
2023-02-16T14:56:01.571Z,101683.63
2023-02-16T14:58:33.844Z,101678.97
2023-02-16T15:01:09.514Z,101685.06
2023-02-16T15:03:46.526Z,101683.34
2023-02-16T15:06:24.296Z,101695.72
2023-02-16T15:08:58.460Z,101700.13
2023-02-16T15:11:32.750Z,101710.75
2023-02-16T15:14:07.912Z,101699.16
2023-02-16T15:16:39.219Z,101696.91
2023-02-16T15:19:16.829Z,101711.69
2023-02-16T15:21:44.945Z,101702.88
2023-02-16T15:24:23.991Z,101709.72
2023-02-16T15:27:01.588Z,101698.50
2023-02-16T15:29:31.528Z,101703.75
2023-02-16T15:32:01.536Z,101699.34
2023-02-16T15:34:35.089Z,101720.13
2023-02-16T15:37:20.620Z,101705.06
2023-02-16T15:40:12.133Z,101711.69
2023-02-16T15:42:37.566Z,101707.16
2023-02-16T15:45:27.087Z,101712.50
2023-02-16T15:47:55.493Z,101709.69
2023-02-16T15:50:27.000Z,101720.75
2023-02-16T15:52:55.394Z,101712.13
2023-02-16T15:55:24.288Z,101718.69
2023-02-16T15:57:53.917Z,101719.75
2023-02-16T16:00:25.117Z,101721.94
2023-02-16T16:02:55.848Z,101713.25
2023-02-16T16:05:28.413Z,101732.94
2023-02-16T16:07:58.302Z,101732.53
2023-02-16T16:10:30.362Z,101719.56
2023-02-16T16:13:02.117Z,101721.25
2023-02-16T16:15:32.839Z,101713.53
2023-02-16T16:18:02.754Z,101721.72
2023-02-16T16:20:38.092Z,101709.88
2023-02-16T16:23:22.465Z,101709.25
2023-02-16T16:25:50.794Z,101722.44
2023-02-16T16:28:34.580Z,101714.03
2023-02-16T16:31:10.634Z,101720.78
2023-02-16T16:33:56.187Z,101709.75
2023-02-16T16:36:32.172Z,101709.25
2023-02-16T16:39:25.834Z,101704.97
2023-02-16T16:42:21.520Z,101706.81
2023-02-16T16:44:59.518Z,101708.19
2023-02-16T16:47:31.044Z,101699.03
2023-02-16T16:50:00.973Z,101703.44
2023-02-16T16:52:41.721Z,101703.09
2023-02-16T16:55:22.671Z,101709.31
2023-02-16T16:57:53.001Z,101701.78
2023-02-16T17:00:22.160Z,101707.88
2023-02-16T17:02:50.768Z,101713.00
2023-02-16T17:05:19.517Z,101714.25
2023-02-16T17:07:51.950Z,101722.91
2023-02-16T17:10:21.705Z,101720.00
2023-02-16T17:12:53.337Z,101718.91
2023-02-16T17:15:35.594Z,101709.88
2023-02-16T17:18:04.040Z,101708.81
2023-02-16T17:20:32.943Z,101709.03
2023-02-16T17:23:04.887Z,101696.59
2023-02-16T17:25:36.374Z,101710.13
2023-02-16T17:28:05.598Z,101718.91
2023-02-16T17:30:34.260Z,101725.97
2023-02-16T17:33:02.863Z,101717.22
2023-02-16T17:35:32.515Z,101726.38
2023-02-16T17:38:00.803Z,101733.47
2023-02-16T17:40:30.310Z,101728.94
2023-02-16T17:42:58.336Z,101732.34
2023-02-16T17:45:26.339Z,101719.56
2023-02-16T17:47:54.334Z,101714.81
2023-02-16T17:50:22.610Z,101715.44
2023-02-16T17:52:50.658Z,101718.13
2023-02-16T17:55:18.801Z,101715.31
2023-02-16T17:57:48.196Z,101720.47
2023-02-16T18:00:21.254Z,101715.81
2023-02-16T18:02:49.272Z,101716.78
2023-02-16T18:05:17.890Z,101730.22
2023-02-16T18:07:45.923Z,101731.78
2023-02-16T18:10:33.748Z,101725.56
2023-02-16T18:13:03.830Z,101719.00
2023-02-16T18:15:31.968Z,101719.84
2023-02-16T18:18:00.426Z,101715.59
2023-02-16T18:20:28.749Z,101726.19
2023-02-16T18:22:56.879Z,101727.78
2023-02-16T18:25:32.901Z,101732.28
2023-02-16T18:28:14.379Z,101742.94
2023-02-16T18:30:42.556Z,101748.41
2023-02-16T18:33:10.648Z,101739.28
2023-02-16T18:35:38.761Z,101743.66
2023-02-16T18:38:06.794Z,101739.91
2023-02-16T18:40:34.982Z,101740.75
2023-02-16T18:43:04.763Z,101746.13
2023-02-16T18:45:33.017Z,101753.41
2023-02-16T18:48:01.047Z,101759.66
2023-02-16T18:50:29.156Z,101757.72
2023-02-16T18:52:57.400Z,101754.69
2023-02-16T18:55:27.662Z,101751.72
2023-02-16T18:57:55.893Z,101758.34
2023-02-16T19:00:25.672Z,101758.94
2023-02-16T19:02:54.451Z,101764.09
2023-02-16T19:05:23.047Z,101771.16
2023-02-16T19:07:51.528Z,101774.38
2023-02-16T19:10:19.812Z,101776.41
2023-02-16T19:12:47.984Z,101780.72
2023-02-16T19:15:15.916Z,101781.59
2023-02-16T19:17:45.492Z,101791.34
2023-02-16T19:20:18.106Z,101803.16
2023-02-16T19:22:46.632Z,101805.41
2023-02-16T19:25:15.121Z,101815.66
2023-02-16T19:27:43.568Z,101815.44
2023-02-16T19:30:13.194Z,101816.03
2023-02-16T19:32:42.259Z,101816.28
2023-02-16T19:35:13.542Z,101820.44
2023-02-16T19:37:41.616Z,101823.38
2023-02-16T19:40:11.794Z,101825.19
2023-02-16T19:42:40.315Z,101822.38
2023-02-16T19:45:09.158Z,101833.50
2023-02-16T19:47:37.237Z,101835.09
2023-02-16T19:50:05.628Z,101830.72
2023-02-16T19:52:35.206Z,101830.72
2023-02-16T19:55:03.226Z,101824.97
2023-02-16T19:57:31.340Z,101825.84
2023-02-16T19:59:59.319Z,101832.19
2023-02-16T20:02:28.881Z,101824.97
2023-02-16T20:04:57.011Z,101827.53
2023-02-16T20:07:24.993Z,101819.34
2023-02-16T20:09:54.744Z,101824.97
2023-02-16T20:12:22.911Z,101830.47
2023-02-16T20:14:51.160Z,101833.03
2023-02-16T20:17:19.394Z,101838.28
2023-02-16T20:19:47.912Z,101849.66
2023-02-16T20:22:16.898Z,101844.91
2023-02-16T20:24:45.066Z,101845.88
2023-02-16T20:27:15.681Z,101844.66
2023-02-16T20:29:43.878Z,101844.91
2023-02-16T20:32:11.937Z,101855.41
2023-02-16T20:34:39.965Z,101852.72
2023-02-16T20:37:08.191Z,101854.41
2023-02-16T20:39:36.325Z,101847.81
2023-02-16T20:42:04.449Z,101850.72
2023-02-16T20:44:34.095Z,101852.69
2023-02-16T20:47:03.403Z,101859.50
2023-02-16T20:49:32.214Z,101859.66
2023-02-16T20:52:01.449Z,101857.94
2023-02-16T20:54:29.612Z,101859.00
2023-02-16T20:56:57.780Z,101864.28
2023-02-16T20:59:25.750Z,101857.81
2023-02-16T21:01:55.268Z,101859.88
2023-02-16T21:04:23.791Z,101864.16
2023-02-16T21:06:52.222Z,101864.16
2023-02-16T21:09:20.321Z,101864.28
2023-02-16T21:11:48.423Z,101858.78
2023-02-16T21:14:16.576Z,101861.97
2023-02-16T21:16:45.265Z,101869.31
2023-02-16T21:19:22.892Z,101871.75
2023-02-16T21:21:52.223Z,101866.38
2023-02-16T21:24:20.804Z,101860.38
2023-02-16T21:26:49.203Z,101861.34
2023-02-16T21:29:17.238Z,101863.06
2023-02-16T21:31:45.363Z,101859.00
2023-02-16T21:34:15.056Z,101857.94
2023-02-16T21:36:43.034Z,101860.97
2023-02-16T21:39:11.303Z,101871.72
2023-02-16T21:41:38.348Z,101863.66
2023-02-16T21:44:08.822Z,101867.44
2023-02-16T21:46:38.709Z,101873.25
2023-02-16T21:49:07.572Z,101868.97
2023-02-16T21:51:39.098Z,101857.59
2023-02-16T21:54:07.949Z,101874.81
2023-02-16T21:56:38.143Z,101871.59
2023-02-16T21:59:08.288Z,101878.72
2023-02-16T22:01:40.302Z,101873.69
2023-02-16T22:04:08.495Z,101886.50
2023-02-16T22:06:41.109Z,101899.16
2023-02-16T22:09:11.620Z,101900.66
2023-02-16T22:11:39.959Z,101894.53
2023-02-16T22:14:08.290Z,101887.47
2023-02-16T22:16:39.755Z,101894.53
2023-02-16T22:19:12.598Z,101882.81
2023-02-16T22:21:43.798Z,101899.78
2023-02-16T22:24:14.326Z,101890.16
2023-02-16T22:26:42.833Z,101887.56
2023-02-16T22:29:12.130Z,101876.44
2023-02-16T22:31:44.754Z,101885.47
2023-02-16T22:34:16.266Z,101872.13
2023-02-16T22:36:49.806Z,101873.34
2023-02-16T22:39:20.389Z,101876.13
2023-02-16T22:41:51.947Z,101866.38
2023-02-16T22:44:21.762Z,101877.13
2023-02-16T22:46:50.383Z,101865.75
2023-02-16T22:49:35.122Z,101873.69
2023-02-16T22:52:06.985Z,101874.22
2023-02-16T22:54:35.019Z,101878.44
2023-02-16T22:57:03.304Z,101878.56
2023-02-16T22:59:31.505Z,101877.47
2023-02-16T23:01:59.637Z,101871.69
2023-02-16T23:04:27.901Z,101879.50
2023-02-16T23:06:56.043Z,101887.69
2023-02-16T23:09:25.810Z,101878.78
2023-02-16T23:11:54.465Z,101877.41
2023-02-16T23:14:22.897Z,101876.56
2023-02-16T23:19:36.928Z,101879.31
2023-02-16T23:22:05.301Z,101872.03
2023-02-16T23:24:35.738Z,101875.69
2023-02-16T23:27:04.447Z,101881.16
2023-02-16T23:29:36.427Z,101876.78
2023-02-16T23:32:07.037Z,101871.63
2023-02-16T23:34:38.836Z,101872.72
2023-02-16T23:37:06.992Z,101879.16
2023-02-16T23:39:37.402Z,101872.31
2023-02-16T23:42:06.128Z,101875.00
2023-02-16T23:44:34.393Z,101878.88
2023-02-16T23:47:17.854Z,101875.22
2023-02-16T23:49:46.614Z,101875.34
2023-02-16T23:52:14.882Z,101875.22
2023-02-16T23:54:44.973Z,101880.91
2023-02-16T23:57:13.685Z,101879.72
2023-02-16T23:59:43.388Z,101890.34
